Reevesville, Illinois
Current Conditions -  °F | °C
As of 7:35 PM on Friday 19 Dec 2014 (Local Time) from KM30 Reporting Station
Overcast Overcast  
Wind Chill: 37°   Ceiling: 10000
Heat Index: 37°   Visibility: 10mi
Dew Point: 30°   Wind: 3mph
Humidity: 76%   Direction: 50°NE
Pressure: 30.25"   Gusts: NA
Location:  37.3798°N, 88.7652°W
Report Text: KM30 200135Z AUTO 05003KT 10SM SCT070 OVC100 03/M01 A3025 RMK AO2 T00271012
Loading
Personal Weather Stations






























Interactive Weather Map New forecast layout! Learn more

10-Day Weather Forecast

Advertisements
Track Severe Weather on mobile